Flight Track Log - Related Links

Times and Time Zones

All times are in EST time to prevent confusion due to time zone crossing. See the N391DT flight status page for this flight to view local times or setup timezone preferences in your user account.

Time Position Orientation Groundspeed Altitude Reporting Facility
EST Latitude Longitude Course Direction KTS MPH feet Rate Location/Type
Sat 12:10:10 PM 26.2553 -81.6308 North 243 280 5,100  Level Miami Center
Sat 12:11:10 PM 26.3219 -81.6333 358° North 222 255 6,600 1,850 Climbing Miami Center
Sat 12:12:10 PM 26.3967 -81.6433 353° North 238 274 8,800 1,850 Climbing Miami Center
Sat 12:13:00 PM 26.3772 -82.0921 North  Level Estimated
Sat 12:13:10 PM 26.4653 -81.6556 351° North 244 281 10,300  Level Miami Center
Sat 12:14:00 PM 26.4221 -82.1556 North  Level Estimated
Sat 12:14:10 PM 26.5358 -81.6653 353° North 249 287 12,000  Level Miami Center
Sat 12:16:10 PM 26.6875 -81.6900 352° North 267 307 35,000 667 Climbing Miami Center
Sat 12:17:10 PM 26.7811 -81.7033 353° North 300 345 14,000 -10,100 Descending Miami Center
Sat 12:18:10 PM 26.8703 -81.7186 351° North 326 375 14,800 1,750 Climbing Miami Center
Sat 12:19:10 PM 26.9492 -81.7311 352° North 316 364 17,500 2,250 Climbing Miami Center
Sat 12:20:10 PM 27.0219 -81.7411 353° North 278 320 19,300 1,650 Climbing Miami Center
Sat 12:21:10 PM 27.0900 -81.7603 346° North 255 293 20,800 6,350 Climbing Miami Center
Sat 12:22:10 PM 27.1600 -81.7889 340° North 255 293 32,000 5,600 Climbing Miami Center
Sat 12:23:10 PM 27.2344 -81.8108 345° North 272 313 32,000 -3,600 Level Miami Center
Sat 12:24:10 PM 27.3006 -81.8347 342° North 273 314 24,800 -2,950 Descending Miami Center
Sat 12:25:10 PM 27.3808 -81.8617 343° North 273 314 26,100 1,200 Climbing Miami Center
Sat 12:26:10 PM 27.4531 -81.8858 343° North 273 314 27,200 1,036 Climbing Miami Center
Sat 12:27:58 PM 27.5811 -81.9328 342° North 272 313 29,000 964 Climbing Jacksonville Center
Sat 12:28:58 PM 27.6583 -81.9625 341° North 267 307 29,900 850 Climbing Jacksonville Center
Sat 12:29:58 PM 27.7294 -81.9878 343° North 272 313 30,700 750 Climbing Jacksonville Center
Sat 12:30:58 PM 27.8069 -82.0081 347° North 272 313 31,400 650 Climbing Jacksonville Center
Sat 12:31:58 PM 27.8839 -82.0075 360° North 286 329 32,000 300 Climbing Jacksonville Center
Sat 12:32:58 PM 27.9736 -82.0114 358° North 300 345 32,000  Level Jacksonville Center
Sat 12:33:58 PM 28.0533 -82.0506 337° Northwest 313 360 32,000  Level Jacksonville Center
Sat 12:34:58 PM 28.1081 -82.1183 312° West 290 334 32,000 350 Level Jacksonville Center
Sat 12:35:58 PM 28.1522 -82.1958 303° West 290 334 32,700 900 Climbing Jacksonville Center
Sat 12:36:58 PM 28.1942 -82.2639 305° West 280 322 33,800 850 Climbing Jacksonville Center
Sat 12:37:58 PM 28.2322 -82.3294 303° West 268 308 34,400 700 Climbing Jacksonville Center
Sat 12:38:58 PM 28.2678 -82.3953 302° West 256 295 35,200 750 Climbing Jacksonville Center
Sat 12:39:58 PM 28.3058 -82.4564 305° West 245 282 35,900 400 Climbing Jacksonville Center
Sat 12:40:58 PM 28.3414 -82.5200 302° West 245 282 36,000 50 Climbing Jacksonville Center
Sat 12:41:58 PM 28.3769 -82.5858 302° West 240 276 36,000  Level Jacksonville Center
Sat 12:42:58 PM 28.4169 -82.6542 304° West 251 289 36,000  Level Jacksonville Center
Sat 12:43:58 PM 28.4567 -82.7250 303° West 256 295 36,000  Level Jacksonville Center
Sat 12:44:58 PM 28.4983 -82.7958 304° West 262 302 36,000  Level Jacksonville Center
Sat 12:45:58 PM 28.5403 -82.8714 302° West 276 318 36,000  Level Jacksonville Center
Sat 12:46:58 PM 28.5839 -82.9422 305° West 276 318 36,000  Level Jacksonville Center
Sat 12:47:58 PM 28.6297 -83.0250 302° West 276 318 36,000  Level Jacksonville Center
Sat 12:48:58 PM 28.6714 -83.1031 301° West 276 318 36,000  Level Jacksonville Center
Sat 12:49:58 PM 28.7153 -83.1767 304° West 276 318 36,000  Level Jacksonville Center
Sat 12:50:58 PM 28.7589 -83.2525 303° West 281 323 36,000  Level Jacksonville Center
Sat 12:51:58 PM 28.8025 -83.3308 302° West 287 330 36,000  Level Jacksonville Center
Sat 12:52:58 PM 28.8458 -83.4092 302° West 292 336 36,000  Level Jacksonville Center
Sat 12:53:58 PM 28.8914 -83.4903 303° West 297 342 36,000  Level Jacksonville Center
Sat 12:54:58 PM 28.9350 -83.5664 303° West 297 342 36,000  Level Jacksonville Center
Sat 12:55:58 PM 28.9803 -83.6450 303° West 297 342 36,000  Level Jacksonville Center
Sat 12:56:58 PM 29.0236 -83.7261 301° West 297 342 36,000  Level Jacksonville Center
Sat 12:57:58 PM 29.0692 -83.8047 304° West 302 348 36,000  Level Jacksonville Center
Sat 12:58:58 PM 29.1125 -83.8836 302° West 297 342 36,000  Level Jacksonville Center
Sat 12:59:58 PM 29.1556 -83.9625 302° West 297 342 36,000  Level Jacksonville Center
Sat 01:00:58 PM 29.2008 -84.0417 303° West 297 342 36,000  Level Jacksonville Center
Sat 01:01:58 PM 29.2439 -84.1231 301° West 297 342 36,000  Level Jacksonville Center
Sat 01:02:58 PM 29.2869 -84.1997 303° West 297 342 36,000  Level Jacksonville Center
Sat 01:03:58 PM 29.3319 -84.2814 302° West 297 342 36,000  Level Jacksonville Center
Sat 01:04:58 PM 29.3750 -84.3606 302° West 297 342 36,000  Level Jacksonville Center
Sat 01:05:58 PM 29.4178 -84.4400 302° West 297 342 36,000  Level Jacksonville Center
Sat 01:06:58 PM 29.4608 -84.5217 301° West 297 342 36,000  Level Jacksonville Center
Sat 01:07:58 PM 29.5056 -84.6011 303° West 297 342 36,000  Level Jacksonville Center
Sat 01:08:58 PM 29.5506 -84.6783 304° West 297 342 36,000  Level Jacksonville Center
Sat 01:09:58 PM 29.5931 -84.7578 302° West 297 342 36,000  Level Jacksonville Center
Sat 01:10:58 PM 29.6358 -84.8353 302° West 297 342 36,000  Level Jacksonville Center
Sat 01:11:58 PM 29.6783 -84.9150 302° West 297 342 36,000  Level Jacksonville Center
Sat 01:12:58 PM 29.7231 -84.9947 303° West 297 342 36,000  Level Jacksonville Center
Sat 01:13:58 PM 29.7656 -85.0747 301° West 297 342 36,000  Level Jacksonville Center
Sat 01:14:58 PM 29.8081 -85.1522 302° West 297 342 36,000  Level Jacksonville Center
Sat 01:15:58 PM 29.8506 -85.2322 302° West 297 342 36,000  Level Jacksonville Center
Sat 01:16:58 PM 29.8950 -85.3122 303° West 297 342 36,000  Level Jacksonville Center
Sat 01:17:58 PM 29.9353 -85.3900 301° West 297 342 36,000  Level Jacksonville Center
Sat 01:18:58 PM 29.9794 -85.4678 303° West 297 342 36,000  Level Jacksonville Center
Sat 01:19:58 PM 30.0133 -85.5478 296° West 297 342 36,000  Level Jacksonville Center
Sat 01:20:58 PM 30.0578 -85.6258 303° West 303 349 36,000  Level Jacksonville Center
Sat 01:21:58 PM 30.0978 -85.7014 301° West 293 337 36,000  Level Jacksonville Center
Sat 01:22:58 PM 30.1397 -85.7819 301° West 288 331 36,000  Level Jacksonville Center
Sat 01:23:58 PM 30.1819 -85.8600 302° West 293 337 36,000  Level Jacksonville Center
Sat 01:24:58 PM 30.2239 -85.9383 302° West 293 337 36,000  Level Jacksonville Center
Sat 01:25:58 PM 30.2658 -86.0189 301° West 293 337 36,000  Level Jacksonville Center
Sat 01:26:58 PM 30.3097 -86.0997 302° West 293 337 36,000  Level Jacksonville Center
Sat 01:27:58 PM 30.3514 -86.1806 301° West 298 343 36,000  Level Jacksonville Center
Sat 01:28:58 PM 30.3953 -86.2639 301° West 298 343 36,000  Level Jacksonville Center
Sat 01:29:58 PM 30.4369 -86.3450 301° West 298 343 36,000  Level Jacksonville Center
Sat 01:30:58 PM 30.4786 -86.4261 301° West 298 343 36,000  Level Jacksonville Center
Sat 01:31:58 PM 30.5242 -86.5072 303° West 298 343 36,000  Level Jacksonville Center
Sat 01:32:58 PM 30.5656 -86.5908 300° West 298 343 36,000  Level Jacksonville Center
Sat 01:33:58 PM 30.6092 -86.6722 302° West 298 343 36,000  Level Jacksonville Center
Sat 01:34:58 PM 30.6506 -86.7558 300° West 298 343 36,000  Level Jacksonville Center
Sat 01:35:58 PM 30.6939 -86.8375 302° West 298 343 36,000  Level Jacksonville Center
Sat 01:36:58 PM 30.7372 -86.9214 301° West 298 343 36,000  Level Jacksonville Center
Sat 01:37:58 PM 30.7806 -87.0053 301° West 298 343 36,000  Level Jacksonville Center
Sat 01:38:58 PM 30.8236 -87.0894 301° West 298 343 36,000  Level Jacksonville Center
Sat 01:39:58 PM 30.8667 -87.1736 301° West 298 343 36,000  Level Jacksonville Center
Sat 01:41:55 PM 30.9492 -87.3375 300° West 300 345 36,000  Level Memphis Center
Sat 01:42:50 PM 30.9903 -87.4214 300° West 301 346 36,000  Level Houston Center
Sat 01:43:52 PM 31.0328 -87.5050 301° West 302 348 36,000  Level Houston Center
Sat 01:44:54 PM 31.0758 -87.5878 301° West 301 346 36,000  Level Houston Center
Sat 01:45:56 PM 31.1186 -87.6717 301° West 302 348 36,000  Level Houston Center
Sat 01:46:58 PM 31.1650 -87.7608 301° West 305 351 36,000  Level Houston Center
Sat 01:48:00 PM 31.2064 -87.8436 300° West 300 345 36,000  Level Houston Center
Sat 01:49:02 PM 31.2519 -87.9350 300° West 293 337 36,000  Level Houston Center
Sat 01:50:04 PM 31.2928 -88.0175 300° West 296 341 36,000  Level Houston Center
Sat 01:51:07 PM 31.3344 -88.0986 301° West 295 339 36,000  Level Houston Center
Sat 01:52:09 PM 31.3744 -88.1800 300° West 293 337 36,000  Level Houston Center
Sat 01:53:11 PM 31.4242 -88.2781 301° West 294 338 36,000  Level Houston Center
Sat 01:54:13 PM 31.4642 -88.3583 300° West 290 334 36,000  Level Houston Center
Sat 01:55:15 PM 31.5044 -88.4408 300° West 291 335 36,000  Level Houston Center
Sat 01:56:17 PM 31.5442 -88.5197 301° West 286 329 36,000  Level Houston Center
Sat 01:57:19 PM 31.5847 -88.6011 300° West 289 333 36,000  Level Houston Center
Sat 01:58:21 PM 31.6331 -88.6994 300° West 291 335 36,000  Level Houston Center
Sat 01:59:23 PM 31.6739 -88.7808 301° West 290 334 36,000  Level Houston Center
Sat 02:00:25 PM 31.7133 -88.8622 300° West 288 331 36,000  Level Houston Center
Sat 02:01:27 PM 31.7533 -88.9458 299° West 294 338 36,000  Level Houston Center
Sat 02:02:29 PM 31.7931 -89.0275 300° West 290 334 36,000  Level Houston Center
Sat 02:03:31 PM 31.8336 -89.1086 300° West 288 331 36,000  Level Houston Center
Sat 02:04:28 PM 31.8781 -89.1964 301° West 289 333 36,000  Level Memphis Center
Sat 02:05:30 PM 31.9178 -89.2783 300° West 289 333 36,000  Level Memphis Center
Sat 02:06:31 PM 31.9578 -89.3606 300° West 291 335 36,000  Level Memphis Center
Sat 02:07:33 PM 31.9972 -89.4431 299° West 290 334 36,000  Level Memphis Center
Sat 02:08:34 PM 32.0367 -89.5253 300° West 289 333 36,000  Level Memphis Center
Sat 02:09:36 PM 32.0758 -89.6078 299° West 290 334 36,000  Level Memphis Center
Sat 02:10:37 PM 32.1239 -89.7072 300° West 290 334 36,000  Level Memphis Center
Sat 02:11:38 PM 32.1636 -89.7897 300° West 291 335 36,000  Level Memphis Center
Sat 02:12:40 PM 32.2028 -89.8725 299° West 290 334 36,000  Level Memphis Center
Sat 02:13:41 PM 32.2414 -89.9544 299° West 288 331 36,000  Level Memphis Center
Sat 02:14:43 PM 32.2808 -90.0372 299° West 288 331 36,000  Level Memphis Center
Sat 02:15:44 PM 32.3194 -90.1189 299° West 286 329 36,000  Level Memphis Center
Sat 02:16:46 PM 32.3592 -90.2008 300° West 288 331 36,000  Level Memphis Center
Sat 02:17:47 PM 32.3978 -90.2833 299° West 287 330 36,000  Level Memphis Center
Sat 02:18:48 PM 32.4364 -90.3653 299° West 286 329 36,000  Level Memphis Center
Sat 02:19:50 PM 32.4825 -90.4647 299° West 287 330 36,000  Level Memphis Center
Sat 02:20:51 PM 32.5208 -90.5469 299° West 287 330 36,000  Level Memphis Center
Sat 02:21:53 PM 32.5603 -90.6283 300° West 286 329 36,000  Level Memphis Center
Sat 02:22:54 PM 32.5981 -90.7100 299° West 284 327 36,000  Level Memphis Center
Sat 02:23:56 PM 32.6358 -90.7919 299° West 284 327 36,000  Level Memphis Center
Sat 02:24:57 PM 32.6744 -90.8747 299° West 287 330 36,000  Level Memphis Center
Sat 02:25:59 PM 32.7128 -90.9564 299° West 285 328 36,000  Level Memphis Center
Sat 02:27:00 PM 32.7583 -91.0550 299° West 285 328 36,000  Level Memphis Center
Sat 02:28:02 PM 32.7969 -91.1383 299° West 287 330 36,000  Level Memphis Center
Sat 02:29:03 PM 32.8347 -91.2206 299° West 285 328 36,000  Level Memphis Center
Sat 02:30:05 PM 32.8719 -91.3028 298° West 286 329 36,000  Level Memphis Center
Sat 02:31:06 PM 32.9097 -91.3858 298° West 285 328 36,000  Level Memphis Center
Sat 02:32:08 PM 32.9492 -91.4681 300° West 285 328 36,000  Level Memphis Center
Sat 02:33:09 PM 32.9864 -91.5508 298° West 285 328 36,000  Level Memphis Center
Sat 02:34:11 PM 33.0247 -91.6342 299° West 285 328 36,000  Level Memphis Center
Sat 02:35:12 PM 33.0697 -91.7333 298° West 285 328 36,000  Level Memphis Center
Sat 02:36:14 PM 33.1086 -91.8167 299° West 287 330 36,000  Level Memphis Center
Sat 02:37:16 PM 33.1439 -91.9011 297° West 286 329 36,000  Level Memphis Center
Sat 02:38:17 PM 33.1817 -91.9850 298° West 287 330 36,000  Level Memphis Center
Sat 02:39:19 PM 33.2217 -92.0739 298° West 288 331 36,000  Level Memphis Center
Sat 02:40:20 PM 33.2597 -92.1575 299° West 288 331 36,000  Level Memphis Center
Sat 02:41:22 PM 33.2975 -92.2417 298° West 288 331 36,000  Level Memphis Center
Sat 02:42:23 PM 33.3336 -92.3272 297° West 288 331 36,000  Level Memphis Center
Sat 02:43:21 PM 33.3728 -92.4117 299° West 288 331 36,000  Level Fort Worth Center
Sat 02:44:23 PM 33.4103 -92.4969 298° West 289 333 36,000  Level Fort Worth Center
Sat 02:45:25 PM 33.4483 -92.5817 298° West 289 333 36,000  Level Fort Worth Center
Sat 02:46:27 PM 33.4942 -92.6831 298° West 290 334 36,000  Level Fort Worth Center
Sat 02:47:29 PM 33.5311 -92.7675 298° West 287 330 36,000  Level Fort Worth Center
Sat 02:48:31 PM 33.5681 -92.8525 298° West 288 331 36,000  Level Fort Worth Center
Sat 02:49:33 PM 33.6044 -92.9361 298° West 284 327 36,000  Level Fort Worth Center
Sat 02:50:35 PM 33.6417 -93.0208 298° West 285 328 36,000  Level Memphis Center
Sat 02:51:37 PM 33.6858 -93.1214 298° West 285 328 36,000  Level Memphis Center
Sat 02:53:40 PM 33.7581 -93.2875 298° West 284 327 36,000  Level Fort Worth Center
Sat 02:54:42 PM 33.7950 -93.3697 298° West 281 323 36,000  Level Fort Worth Center
Sat 02:55:44 PM 33.8297 -93.4544 296° West 283 326 36,000  Level Fort Worth Center
Sat 02:56:46 PM 33.8667 -93.5361 299° West 281 323 36,000  Level Fort Worth Center
Sat 02:57:48 PM 33.9100 -93.6378 297° West 285 328 36,000  Level Fort Worth Center
Sat 02:58:50 PM 33.9464 -93.7228 297° West 287 330 36,000  Level Fort Worth Center
Sat 02:59:52 PM 33.9839 -93.8083 298° West 290 334 36,000  Level Fort Worth Center
Sat 03:00:54 PM 34.0197 -93.8939 297° West 289 333 36,000  Level Fort Worth Center
Sat 03:01:55 PM 34.0561 -93.9778 298° West 286 329 36,000  Level Fort Worth Center
Sat 03:02:57 PM 34.0925 -94.0639 297° West 287 330 36,000  Level Fort Worth Center
Sat 03:03:59 PM 34.1364 -94.1681 297° West 292 336 36,000  Level Fort Worth Center
Sat 03:05:01 PM 34.1722 -94.2528 297° West 287 330 36,000  Level Fort Worth Center
Sat 03:06:03 PM 34.2081 -94.3386 297° West 288 331 36,000  Level Fort Worth Center
Sat 03:07:04 PM 34.2450 -94.4250 297° West 290 334 36,000  Level Fort Worth Center
Sat 03:08:06 PM 34.2814 -94.5117 297° West 289 333 36,000  Level Fort Worth Center
Sat 03:09:08 PM 34.3178 -94.5975 297° West 288 331 36,000  Level Fort Worth Center
Sat 03:10:10 PM 34.3617 -94.7000 297° West 286 329 36,000  Level Fort Worth Center
Sat 03:11:11 PM 34.3964 -94.7856 296° West 284 327 36,000  Level Fort Worth Center
Sat 03:12:13 PM 34.4317 -94.8714 297° West 287 330 36,000  Level Fort Worth Center
Sat 03:13:15 PM 34.4675 -94.9561 297° West 284 327 36,000  Level Fort Worth Center
Sat 03:14:17 PM 34.5036 -95.0408 297° West 284 327 36,000  Level Fort Worth Center
Sat 03:15:18 PM 34.5383 -95.1286 296° West 289 333 36,000  Level Fort Worth Center
Sat 03:16:20 PM 34.5728 -95.2150 296° West 286 329 36,000  Level Fort Worth Center
Sat 03:17:22 PM 34.6164 -95.3172 297° West 287 330 36,000  Level Fort Worth Center
Sat 03:18:23 PM 34.6511 -95.4022 296° West 283 326 36,000  Level Fort Worth Center
Sat 03:19:25 PM 34.6856 -95.4892 296° West 284 327 36,000  Level Fort Worth Center
Sat 03:20:27 PM 34.7250 -95.5828 297° West 284 327 36,000  Level Fort Worth Center
Sat 03:21:29 PM 34.7578 -95.6686 295° West 282 325 36,000  Level Fort Worth Center
Sat 03:22:30 PM 34.7925 -95.7522 297° West 278 320 36,000  Level Fort Worth Center
Sat 03:23:32 PM 34.8261 -95.8378 296° West 280 322 36,000 -871 Level Fort Worth Center
Sat 03:24:34 PM 34.8617 -95.9272 296° West 293 337 34,200 -1,597 Descending Fort Worth Center
Sat 03:25:36 PM 34.9008 -96.0264 296° West 323 372 32,700 -1,610 Descending Fort Worth Center
Sat 03:26:37 PM 34.9478 -96.1444 296° West 324 373 30,900 -1,707 Descending Fort Worth Center
Sat 03:27:39 PM 34.9856 -96.2358 297° West 310 357 29,200 -1,645 Descending Fort Worth Center
Sat 03:28:41 PM 35.0208 -96.3239 296° West 295 339 27,500 -1,839 Descending Fort Worth Center
Sat 03:29:43 PM 35.0544 -96.4108 295° West 287 330 25,400 -2,129 Descending Fort Worth Center
Sat 03:30:45 PM 35.0906 -96.5017 296° West 293 337 23,100 -2,438 Descending Fort Worth Center
Sat 03:30:47 PM 35.0961 -96.5175 293° West 302 348 22,800 -2,164 Descending Fort Worth Center
Sat 03:31:46 PM 35.1253 -96.5917 296° West 292 336 20,900 -2,188 Descending Fort Worth Center
Sat 03:32:12 PM 35.1431 -96.6400 294° West 281 323 19,700 -2,226 Descending Fort Worth Center
Sat 03:32:48 PM 35.1586 -96.6756 298° West 276 318 18,600 -2,164 Descending Fort Worth Center
Sat 03:33:13 PM 35.1744 -96.7242 292° West 270 311 17,500 -2,516 Descending Fort Worth Center
Sat 03:33:50 PM 35.1972 -96.7750 299° West 270 311 16,000 -2,300 Descending Fort Worth Center
Sat 03:34:13 PM 35.2078 -96.8056 293° West 270 311 15,200 -2,129 Descending Fort Worth Center
Sat 03:34:52 PM 35.2281 -96.8578 295° West 268 308 13,800 -2,361 Descending Fort Worth Center
Sat 03:35:14 PM 35.2417 -96.8944 294° West 268 308 12,800 -2,226 Descending Fort Worth Center
Sat 03:35:54 PM 35.2597 -96.9403 296° West 268 308 11,500 -2,286 Descending Fort Worth Center
Sat 03:35:56 PM 35.2633 -96.9497 295° West 265 305 11,200 -2,262 Descending Fort Worth Center
Sat 03:36:55 PM 35.2922 -97.0244 295° West 266 306 9,200 -2,149 Descending Fort Worth Center
Sat 03:37:03 PM 35.2969 -97.0364 296° West 262 302 8,800 -1,742 Descending Fort Worth Center
Sat 03:37:57 PM 35.3258 -97.1117 295° West 263 303 7,400 -1,574 Descending Fort Worth Center
Sat 03:38:04 PM 35.3278 -97.1183 290° West 262 302 7,200 -885 Descending Fort Worth Center
Sat 03:38:58 PM 35.3553 -97.1906 295° West 254 292 6,500 -764 Descending Fort Worth Center
Sat 03:38:59 PM 35.3556 -97.1894 73° East 252 290 6,500 -885 Level Fort Worth Center
Sat 03:39:59 PM 35.3811 -97.2658 292° West 239 275 5,600 -968 Descending Fort Worth Center
Sat 03:40:01 PM 35.3833 -97.2711 297° West 243 280 5,500 -900 Descending Fort Worth Center
Sat 03:40:59 PM 35.4069 -97.3411 292° West 242 278 4,700 -871 Descending Fort Worth Center
Sat 03:41:03 PM 35.4100 -97.3458 308° West 239 275 4,600 -885 Descending Fort Worth Center
Sat 03:42:00 PM 35.4317 -97.4089 293° West 217 250 3,800 -885 Descending Fort Worth Center
Sat 03:42:04 PM 35.4344 -97.4139 304° West 220 253 3,700 -1,000 Descending Fort Worth Center
Sat 03:43:06 PM 35.4575 -97.4828 292° West 203 234 2,700 -564 Descending Fort Worth Center
Sat 03:44:01 PM 35.4769 -97.5272 298° West 150 173 2,600 -97 Descending Fort Worth Center
Sat 03:44:08 PM 35.4786 -97.5306 302° West 161 185 2,600  Level Fort Worth Center
Sat 03:44:56 PM 35.4906 -97.5711 290° West 146 168 2,600  Level Fort Worth Center
Sat 03:45:10 PM 35.4931 -97.5825 285° West 152 175 2,600 -395 Level Fort Worth Center
Sat 03:46:12 PM 35.4919 -97.6303 268° West 138 159 2,100 -505 Descending Fort Worth Center
Sat 03:46:57 PM 35.5056 -97.6458 317° Northwest 94 108 1,700 -492 Descending Fort Worth Center
Sat 03:47:13 PM 35.5131 -97.6453 North 97 112 1,600 -375 Descending Fort Worth Center
Sat 03:49:00 PM 35.5333 -97.6333 321° Northwest  Level FlightAware Approximate

Login

Don't have an account? Register now (free) for customized features, flight alerts, and more!